createdAt,value
2022-10-06T00:00:16.241Z,98845.13
2022-10-06T00:02:46.950Z,98850.34
2022-10-06T00:05:17.658Z,98856.22
2022-10-06T00:07:46.185Z,98856.41
2022-10-06T00:10:15.393Z,98855.78
2022-10-06T00:12:46.210Z,98870.16
2022-10-06T00:15:19.672Z,98872.59
2022-10-06T00:17:48.727Z,98875.69
2022-10-06T00:20:19.682Z,98887.66
2022-10-06T00:22:51.098Z,98883.38
2022-10-06T00:25:23.863Z,98884.66
2022-10-06T00:27:54.044Z,98885.28
2022-10-06T00:30:26.369Z,98885.13
2022-10-06T00:32:58.622Z,98886.56
2022-10-06T00:35:33.728Z,98889.81
2022-10-06T00:38:04.314Z,98898.31
2022-10-06T00:40:34.717Z,98907.66
2022-10-06T00:43:05.845Z,98912.72
2022-10-06T00:45:41.237Z,98912.16
2022-10-06T00:48:15.707Z,98921.31
2022-10-06T00:50:47.485Z,98922.63
2022-10-06T00:53:17.622Z,98932.75
2022-10-06T00:55:46.546Z,98947.88
2022-10-06T00:58:16.614Z,98960.47
2022-10-06T01:00:49.289Z,98991.69
2022-10-06T01:03:26.002Z,98996.81
2022-10-06T01:05:58.237Z,99011.25
2022-10-06T01:08:27.578Z,99007.00
2022-10-06T01:10:56.394Z,99014.44
2022-10-06T01:13:26.364Z,99017.25
2022-10-06T01:16:08.721Z,99010.34
2022-10-06T01:18:42.063Z,99011.97
2022-10-06T01:21:21.171Z,99015.22
2022-10-06T01:23:51.882Z,99008.75
2022-10-06T01:26:25.106Z,99014.00
2022-10-06T01:28:54.058Z,99015.22
2022-10-06T01:31:23.072Z,99006.34
2022-10-06T01:33:53.998Z,99001.75
2022-10-06T01:36:22.951Z,99000.72
2022-10-06T01:38:53.103Z,98999.72
2022-10-06T01:41:23.128Z,98998.75
2022-10-06T01:43:52.012Z,98990.84
2022-10-06T01:46:21.356Z,98995.91
2022-10-06T01:48:50.231Z,98996.94
2022-10-06T01:51:18.895Z,99004.81
2022-10-06T01:53:47.384Z,99001.97
2022-10-06T01:56:17.224Z,99004.00
2022-10-06T01:58:45.590Z,99009.63
2022-10-06T02:01:14.141Z,98998.09
2022-10-06T02:03:42.997Z,98993.47
2022-10-06T02:06:12.220Z,98989.22
2022-10-06T02:08:41.449Z,98993.47
2022-10-06T02:11:12.527Z,99000.28
2022-10-06T02:13:44.032Z,98986.13
2022-10-06T02:16:18.637Z,98984.88
2022-10-06T02:18:47.158Z,98986.13
2022-10-06T02:21:17.924Z,98994.47
2022-10-06T02:23:47.627Z,98998.75
2022-10-06T02:26:19.009Z,98995.47
2022-10-06T02:28:49.918Z,99005.97
2022-10-06T02:31:19.171Z,99015.88
2022-10-06T02:33:48.302Z,99017.84
2022-10-06T02:36:18.161Z,99024.97
2022-10-06T02:38:46.684Z,99034.66
2022-10-06T02:41:15.103Z,99033.03
2022-10-06T02:43:43.675Z,99040.09
2022-10-06T02:46:15.862Z,99044.72
2022-10-06T02:48:44.590Z,99044.91
2022-10-06T02:51:17.195Z,99052.78
2022-10-06T02:53:47.990Z,99056.44
2022-10-06T02:56:20.987Z,99056.44
2022-10-06T02:58:51.582Z,99061.03
2022-10-06T03:01:25.577Z,99069.75
2022-10-06T03:03:55.322Z,99077.81
2022-10-06T03:06:27.166Z,99079.97
2022-10-06T03:08:58.617Z,99087.09
2022-10-06T03:11:29.750Z,99092.69
2022-10-06T03:13:59.213Z,99090.50
2022-10-06T03:16:32.528Z,99103.38
2022-10-06T03:19:03.063Z,99105.81
2022-10-06T03:21:34.897Z,99101.59
2022-10-06T03:24:04.822Z,99106.84
2022-10-06T03:26:36.051Z,99118.34
2022-10-06T03:29:10.478Z,99123.75
2022-10-06T03:31:42.570Z,99133.66
2022-10-06T03:34:11.315Z,99133.50
2022-10-06T03:36:39.763Z,99149.25
2022-10-06T03:39:09.806Z,99153.50
2022-10-06T03:41:40.240Z,99132.47
2022-10-06T03:44:09.389Z,99152.06
2022-10-06T03:46:39.126Z,99152.06
2022-10-06T03:49:10.240Z,99154.69
2022-10-06T03:51:44.254Z,99163.41
2022-10-06T03:54:13.107Z,99162.56
2022-10-06T03:56:43.796Z,99172.25
2022-10-06T03:59:17.405Z,99179.16
2022-10-06T04:01:48.629Z,99178.69
2022-10-06T04:04:19.027Z,99180.50
2022-10-06T04:06:48.195Z,99179.53
2022-10-06T04:09:17.437Z,99186.41
2022-10-06T04:11:46.889Z,99195.31
2022-10-06T04:14:17.488Z,99194.47
2022-10-06T04:16:49.246Z,99198.09
2022-10-06T04:19:20.058Z,99210.25
2022-10-06T04:21:49.435Z,99218.97
2022-10-06T04:24:19.010Z,99214.84
2022-10-06T04:26:49.642Z,99216.69
2022-10-06T04:29:18.299Z,99221.94
2022-10-06T04:31:47.194Z,99226.38
2022-10-06T04:34:16.267Z,99220.28
2022-10-06T04:36:46.841Z,99215.88
2022-10-06T04:39:15.578Z,99226.38
2022-10-06T04:41:47.403Z,99225.91
2022-10-06T04:44:16.714Z,99229.53
2022-10-06T04:46:45.993Z,99240.03
2022-10-06T04:49:19.858Z,99237.59
2022-10-06T04:51:50.486Z,99247.47
2022-10-06T04:54:19.998Z,99252.91
2022-10-06T04:56:49.588Z,99254.72
2022-10-06T04:59:18.187Z,99254.25
2022-10-06T05:01:46.748Z,99266.25
2022-10-06T05:04:15.964Z,99263.16
2022-10-06T05:06:44.614Z,99256.00
2022-10-06T05:09:16.840Z,99257.63
2022-10-06T05:11:45.781Z,99254.69
2022-10-06T05:14:14.266Z,99270.81
2022-10-06T05:16:44.000Z,99278.41
2022-10-06T05:19:12.431Z,99290.59
2022-10-06T05:21:41.946Z,99289.09
2022-10-06T05:24:10.772Z,99290.91
2022-10-06T05:26:40.663Z,99301.94
2022-10-06T05:29:09.149Z,99305.72
2022-10-06T05:31:40.528Z,99299.66
2022-10-06T05:34:09.119Z,99304.06
2022-10-06T05:36:39.077Z,99300.47
2022-10-06T05:39:07.746Z,99314.59
2022-10-06T05:41:37.909Z,99313.28
2022-10-06T05:44:08.773Z,99317.91
2022-10-06T05:46:37.759Z,99325.94
2022-10-06T05:49:09.306Z,99331.88
2022-10-06T05:51:40.188Z,99330.72
2022-10-06T05:54:08.725Z,99329.91
2022-10-06T05:56:40.014Z,99343.56
2022-10-06T05:59:09.908Z,99354.22
2022-10-06T06:01:41.679Z,99357.50
2022-10-06T06:04:13.034Z,99355.38
2022-10-06T06:06:44.339Z,99348.81
2022-10-06T06:09:16.445Z,99357.03
2022-10-06T06:11:48.640Z,99370.00
2022-10-06T06:14:42.458Z,99366.91
2022-10-06T06:17:17.414Z,99380.34
2022-10-06T06:19:47.255Z,99385.75
2022-10-06T06:22:17.637Z,99388.91
2022-10-06T06:24:49.827Z,99390.69
2022-10-06T06:27:18.489Z,99390.84
2022-10-06T06:29:53.547Z,99394.78
2022-10-06T06:32:22.551Z,99400.03
2022-10-06T06:34:56.854Z,99400.84
2022-10-06T06:37:26.471Z,99408.91
2022-10-06T06:39:57.535Z,99412.66
2022-10-06T06:42:26.997Z,99406.59
2022-10-06T06:44:56.962Z,99421.34
2022-10-06T06:47:26.966Z,99417.09
2022-10-06T06:49:55.773Z,99428.41
2022-10-06T06:52:26.435Z,99432.66
2022-10-06T06:54:54.970Z,99430.06
2022-10-06T06:57:34.789Z,99447.25
2022-10-06T07:00:08.265Z,99450.06
2022-10-06T07:02:37.081Z,99455.13
2022-10-06T07:05:07.790Z,99441.19
2022-10-06T07:07:36.468Z,99453.19
2022-10-06T07:10:06.399Z,99451.88
2022-10-06T07:12:34.869Z,99449.25
2022-10-06T07:15:23.499Z,99457.75
2022-10-06T07:18:09.705Z,99451.69
2022-10-06T07:20:55.541Z,99459.06
2022-10-06T07:23:41.410Z,99460.38
2022-10-06T07:26:10.468Z,99471.38
2022-10-06T07:28:39.619Z,99469.56
2022-10-06T07:31:09.727Z,99475.47
2022-10-06T07:33:40.874Z,99467.25
2022-10-06T07:36:09.854Z,99466.94
2022-10-06T07:38:41.515Z,99467.41
2022-10-06T07:41:19.782Z,99471.50
2022-10-06T07:43:49.046Z,99476.28
2022-10-06T07:46:19.950Z,99483.81
2022-10-06T07:48:50.054Z,99474.63
2022-10-06T07:51:21.380Z,99483.97
2022-10-06T07:53:51.480Z,99478.38
2022-10-06T07:56:21.208Z,99485.63
2022-10-06T07:58:51.250Z,99484.59
2022-10-06T08:01:22.142Z,99488.72
2022-10-06T08:03:53.977Z,99486.44
2022-10-06T08:06:24.567Z,99489.53
2022-10-06T08:08:53.759Z,99497.09
2022-10-06T08:11:24.758Z,99502.00
2022-10-06T08:13:53.564Z,99503.66
2022-10-06T08:16:25.949Z,99508.41
2022-10-06T08:18:56.347Z,99519.22
2022-10-06T08:21:28.236Z,99521.69
2022-10-06T08:23:59.578Z,99518.72
2022-10-06T08:26:31.239Z,99517.41
2022-10-06T08:29:03.231Z,99527.22
2022-10-06T08:31:34.572Z,99535.78
2022-10-06T08:34:03.141Z,99532.97
2022-10-06T08:36:32.721Z,99533.78
2022-10-06T08:39:01.559Z,99541.34
2022-10-06T08:41:41.323Z,99540.84
2022-10-06T08:44:23.362Z,99542.16
2022-10-06T08:47:00.737Z,99544.59
2022-10-06T08:49:38.546Z,99545.41
2022-10-06T08:52:43.027Z,99544.25
2022-10-06T08:55:32.125Z,99549.16
2022-10-06T08:58:37.226Z,99549.16
2022-10-06T09:01:19.384Z,99553.91
2022-10-06T09:03:52.495Z,99554.91
2022-10-06T09:06:43.958Z,99556.56
2022-10-06T09:09:29.601Z,99568.72
2022-10-06T09:12:14.793Z,99567.56
2022-10-06T09:14:49.566Z,99576.09
2022-10-06T09:17:27.830Z,99571.63
2022-10-06T09:20:05.846Z,99582.16
2022-10-06T09:22:34.871Z,99579.72
2022-10-06T09:25:18.358Z,99575.78
2022-10-06T09:27:54.733Z,99580.06
2022-10-06T09:30:25.202Z,99578.25
2022-10-06T09:33:00.228Z,99572.16
2022-10-06T09:35:33.220Z,99573.00
2022-10-06T09:38:08.324Z,99581.38
2022-10-06T09:40:44.597Z,99573.78
2022-10-06T09:43:26.755Z,99579.72
2022-10-06T09:45:57.611Z,99583.81
2022-10-06T09:48:28.278Z,99580.69
2022-10-06T09:51:15.523Z,99590.22
2022-10-06T09:53:46.134Z,99580.34
2022-10-06T09:56:19.426Z,99586.91
2022-10-06T09:58:58.115Z,99585.94
2022-10-06T10:01:30.781Z,99586.91
2022-10-06T10:04:21.522Z,99585.47
2022-10-06T10:06:54.435Z,99585.13
2022-10-06T10:09:30.458Z,99581.66
2022-10-06T10:12:28.100Z,99588.56
2022-10-06T10:15:02.046Z,99591.50
2022-10-06T10:17:48.850Z,99596.41
2022-10-06T10:20:38.452Z,99590.00
2022-10-06T10:23:31.141Z,99581.59
2022-10-06T10:26:19.034Z,99584.88
2022-10-06T10:29:33.201Z,99580.25
2022-10-06T10:32:12.824Z,99575.81
2022-10-06T10:35:06.908Z,99584.19
2022-10-06T10:37:46.721Z,99573.03
2022-10-06T10:40:35.116Z,99573.38
2022-10-06T10:43:13.397Z,99579.13
2022-10-06T10:45:48.345Z,99580.41
2022-10-06T10:48:24.310Z,99575.44
2022-10-06T10:51:02.532Z,99571.31
2022-10-06T10:53:45.708Z,99568.50
2022-10-06T10:56:21.307Z,99572.59
2022-10-06T10:58:55.560Z,99568.00
2022-10-06T11:01:35.630Z,99565.03
2022-10-06T11:04:05.397Z,99571.09
2022-10-06T11:07:06.533Z,99573.56
2022-10-06T11:09:50.076Z,99576.03
2022-10-06T11:12:39.053Z,99572.56
2022-10-06T11:15:25.337Z,99576.84
2022-10-06T11:18:07.399Z,99576.84
2022-10-06T11:20:47.428Z,99573.91
2022-10-06T11:23:37.660Z,99576.19
2022-10-06T11:26:25.147Z,99574.00
2022-10-06T11:29:04.778Z,99578.75
2022-10-06T11:31:45.945Z,99572.13
2022-10-06T11:34:15.613Z,99570.16
2022-10-06T11:36:55.832Z,99571.63
2022-10-06T11:39:39.958Z,99569.81
2022-10-06T11:42:21.783Z,99568.63
2022-10-06T11:45:03.907Z,99562.84
2022-10-06T11:47:41.653Z,99558.88
2022-10-06T11:50:44.523Z,99559.16
2022-10-06T11:53:41.610Z,99560.63
2022-10-06T11:56:46.836Z,99554.19
2022-10-06T11:59:31.866Z,99553.84
2022-10-06T12:02:03.193Z,99545.41
2022-10-06T12:04:32.051Z,99538.97
2022-10-06T12:07:06.350Z,99538.97
2022-10-06T12:09:53.319Z,99534.31
2022-10-06T12:13:01.931Z,99538.25
2022-10-06T12:19:12.741Z,99530.66
2022-10-06T12:21:53.197Z,99531.28
2022-10-06T12:24:43.661Z,99531.09
2022-10-06T12:27:29.064Z,99524.28
2022-10-06T12:30:07.674Z,99524.59
2022-10-06T12:32:50.362Z,99519.94
2022-10-06T12:35:31.440Z,99527.31
2022-10-06T12:38:05.632Z,99518.84
2022-10-06T12:40:55.322Z,99513.22
2022-10-06T12:43:59.800Z,99519.31
2022-10-06T12:46:45.782Z,99509.88
2022-10-06T12:49:48.077Z,99513.78
2022-10-06T12:52:49.899Z,99509.78
2022-10-06T12:55:35.265Z,99508.41
2022-10-06T12:58:04.233Z,99511.88
2022-10-06T13:00:38.474Z,99506.44
2022-10-06T13:03:09.851Z,99503.78
2022-10-06T13:05:39.102Z,99496.16
2022-10-06T13:08:26.269Z,99498.44
2022-10-06T13:11:13.997Z,99507.63
2022-10-06T13:13:49.253Z,99493.06
2022-10-06T13:16:20.649Z,99495.16
2022-10-06T13:18:50.310Z,99497.22
2022-10-06T13:21:18.843Z,99494.44
2022-10-06T13:23:50.241Z,99491.88
2022-10-06T13:26:24.407Z,99484.41
2022-10-06T13:28:55.054Z,99489.13
2022-10-06T13:31:27.439Z,99487.75
2022-10-06T13:34:00.976Z,99485.38
2022-10-06T13:36:31.742Z,99489.91
2022-10-06T13:39:04.849Z,99475.34
2022-10-06T13:41:38.261Z,99482.88
2022-10-06T13:44:29.986Z,99477.22
2022-10-06T13:47:03.593Z,99477.47
2022-10-06T13:49:44.324Z,99476.56
2022-10-06T13:52:20.396Z,99476.50
2022-10-06T13:54:56.169Z,99472.84
2022-10-06T13:57:37.843Z,99472.53
2022-10-06T14:00:18.159Z,99474.34
2022-10-06T14:02:49.149Z,99476.59
2022-10-06T14:05:36.644Z,99468.16
2022-10-06T14:08:20.075Z,99467.78
2022-10-06T14:10:55.440Z,99475.97
2022-10-06T14:13:28.971Z,99473.91
2022-10-06T14:16:02.564Z,99469.84
2022-10-06T14:18:40.099Z,99476.16
2022-10-06T14:21:32.707Z,99473.09
2022-10-06T14:24:06.117Z,99465.78
2022-10-06T14:26:39.943Z,99466.78
2022-10-06T14:29:09.167Z,99463.53
2022-10-06T14:31:38.414Z,99468.19
2022-10-06T14:34:14.053Z,99461.50
2022-10-06T14:36:44.675Z,99460.47
2022-10-06T14:39:15.752Z,99458.44
2022-10-06T14:41:46.065Z,99454.38
2022-10-06T14:44:15.929Z,99455.59
2022-10-06T14:46:49.589Z,99440.94
2022-10-06T14:49:18.742Z,99451.13
2022-10-06T14:51:47.595Z,99449.31
2022-10-06T14:54:16.121Z,99440.31
2022-10-06T14:56:46.026Z,99452.56
2022-10-06T14:59:17.229Z,99447.84
2022-10-06T15:01:47.517Z,99447.03
2022-10-06T15:04:20.200Z,99443.78
2022-10-06T15:07:06.765Z,99442.56
2022-10-06T15:09:35.815Z,99445.03
2022-10-06T15:12:08.778Z,99447.03
2022-10-06T15:14:39.931Z,99443.78
2022-10-06T15:17:08.754Z,99428.50
2022-10-06T15:19:37.811Z,99428.50
2022-10-06T15:22:08.853Z,99429.31
2022-10-06T15:24:37.653Z,99431.13
2022-10-06T15:27:25.389Z,99428.13
2022-10-06T15:29:54.108Z,99426.47
2022-10-06T15:32:22.671Z,99427.47
2022-10-06T15:34:53.175Z,99419.94
2022-10-06T15:37:21.725Z,99428.28
2022-10-06T15:39:52.189Z,99426.81
2022-10-06T15:42:24.288Z,99430.25
2022-10-06T15:44:53.174Z,99423.13
2022-10-06T15:47:23.761Z,99424.53
2022-10-06T15:49:52.313Z,99425.28
2022-10-06T15:52:21.358Z,99432.56
2022-10-06T15:54:49.934Z,99426.63
2022-10-06T15:57:21.217Z,99428.75
2022-10-06T15:59:51.613Z,99434.00
2022-10-06T16:02:21.329Z,99432.72
2022-10-06T16:05:26.024Z,99430.63
2022-10-06T16:07:54.566Z,99429.50
2022-10-06T16:10:23.040Z,99432.22
2022-10-06T16:12:51.613Z,99432.28
2022-10-06T16:15:21.568Z,99435.81
2022-10-06T16:17:50.067Z,99432.28
2022-10-06T16:20:19.120Z,99433.16
2022-10-06T16:22:47.580Z,99434.75
2022-10-06T16:25:16.544Z,99431.06
2022-10-06T16:27:47.745Z,99434.78
2022-10-06T16:30:16.322Z,99438.94
2022-10-06T16:32:46.845Z,99442.59
2022-10-06T16:35:18.345Z,99437.88
2022-10-06T16:37:49.930Z,99441.91
2022-10-06T16:40:19.014Z,99438.16
2022-10-06T16:42:47.521Z,99443.31
2022-10-06T16:45:16.610Z,99448.44
2022-10-06T16:47:46.512Z,99446.88
2022-10-06T16:50:15.215Z,99444.97
2022-10-06T16:52:43.764Z,99445.63
2022-10-06T16:55:12.487Z,99448.25
2022-10-06T16:57:40.950Z,99446.34
2022-10-06T17:00:11.869Z,99454.03
2022-10-06T17:02:41.333Z,99451.50
2022-10-06T17:05:11.512Z,99452.06
2022-10-06T17:07:40.089Z,99449.34
2022-10-06T17:10:26.066Z,99446.81
2022-10-06T17:12:54.667Z,99457.84
2022-10-06T17:15:23.702Z,99455.56
2022-10-06T17:17:55.541Z,99457.09
2022-10-06T17:20:25.665Z,99459.75
2022-10-06T17:22:55.102Z,99465.44
2022-10-06T17:25:23.663Z,99467.41
2022-10-06T17:27:52.095Z,99460.91
2022-10-06T17:30:20.678Z,99472.31
2022-10-06T17:32:49.625Z,99474.81
2022-10-06T17:35:19.902Z,99471.56
2022-10-06T17:37:50.413Z,99476.03
2022-10-06T17:40:18.878Z,99485.59
2022-10-06T17:42:47.347Z,99487.44
2022-10-06T17:45:20.925Z,99490.91
2022-10-06T17:47:49.803Z,99491.06
2022-10-06T17:50:18.415Z,99489.47
2022-10-06T17:52:49.708Z,99490.84
2022-10-06T17:55:18.233Z,99502.66
2022-10-06T17:57:46.721Z,99494.44
2022-10-06T18:00:18.322Z,99497.44
2022-10-06T18:02:47.319Z,99494.66
2022-10-06T18:05:16.428Z,99497.44
2022-10-06T18:07:45.082Z,99492.00
2022-10-06T18:10:33.002Z,99503.66
2022-10-06T18:13:01.415Z,99501.66
2022-10-06T18:15:29.939Z,99507.25
2022-10-06T18:17:59.529Z,99504.00
2022-10-06T18:20:30.803Z,99500.38
2022-10-06T18:22:59.209Z,99505.00
2022-10-06T18:25:29.085Z,99500.06
2022-10-06T18:27:57.532Z,99496.28
2022-10-06T18:30:29.445Z,99494.81
2022-10-06T18:38:44.556Z,99496.47
2022-10-06T18:41:17.756Z,99494.00
2022-10-06T18:43:47.475Z,99493.34
2022-10-06T18:46:36.441Z,99494.66
2022-10-06T18:49:12.910Z,99493.50
2022-10-06T18:51:44.265Z,99504.31
2022-10-06T18:54:15.606Z,99496.25
2022-10-06T18:56:50.035Z,99495.44
2022-10-06T18:59:21.111Z,99495.25
2022-10-06T19:01:51.577Z,99499.66
2022-10-06T19:04:22.378Z,99500.00
2022-10-06T19:06:54.421Z,99499.34
2022-10-06T19:09:25.550Z,99503.44
2022-10-06T19:11:58.194Z,99513.94
2022-10-06T19:14:30.126Z,99508.28
2022-10-06T19:17:03.427Z,99511.69
2022-10-06T19:19:34.045Z,99516.25
2022-10-06T19:22:04.959Z,99515.97
2022-10-06T19:24:38.546Z,99512.13
2022-10-06T19:27:12.318Z,99507.66
2022-10-06T19:29:45.667Z,99515.84
2022-10-06T19:32:17.425Z,99518.78
2022-10-06T19:34:46.993Z,99514.50
2022-10-06T19:37:15.868Z,99511.88
2022-10-06T19:39:48.742Z,99519.34
2022-10-06T19:42:38.066Z,99516.41
2022-10-06T19:45:08.764Z,99522.41
2022-10-06T19:47:38.350Z,99511.75
2022-10-06T19:50:12.176Z,99514.56
2022-10-06T19:52:42.074Z,99518.00
2022-10-06T19:55:10.677Z,99522.88
2022-10-06T19:57:41.671Z,99527.28
2022-10-06T20:00:16.302Z,99528.22
2022-10-06T20:02:45.838Z,99525.47
2022-10-06T20:05:16.418Z,99524.13
2022-10-06T20:07:47.456Z,99519.47
2022-10-06T20:10:16.215Z,99522.34
2022-10-06T20:12:46.833Z,99526.28
2022-10-06T20:15:15.395Z,99523.13
2022-10-06T20:17:45.523Z,99520.72
2022-10-06T20:20:14.997Z,99522.22
2022-10-06T20:22:43.436Z,99514.38
2022-10-06T20:25:11.885Z,99517.28
2022-10-06T20:27:40.353Z,99518.72
2022-10-06T20:30:11.604Z,99524.28
2022-10-06T20:32:41.934Z,99515.72
2022-10-06T20:35:10.670Z,99522.75
2022-10-06T20:37:42.601Z,99523.00
2022-10-06T20:40:29.289Z,99525.84
2022-10-06T20:42:59.478Z,99521.88
2022-10-06T20:45:29.968Z,99518.97
2022-10-06T20:48:00.306Z,99517.31
2022-10-06T20:50:31.593Z,99515.53
2022-10-06T20:53:00.116Z,99507.75
2022-10-06T20:55:28.569Z,99511.31
2022-10-06T20:57:57.167Z,99509.72
2022-10-06T21:00:25.622Z,99510.44
2022-10-06T21:02:56.400Z,99514.41
2022-10-06T21:05:25.144Z,99508.78
2022-10-06T21:07:54.358Z,99506.00
2022-10-06T21:10:23.192Z,99502.16
2022-10-06T21:12:51.681Z,99501.19
2022-10-06T21:15:20.553Z,99501.59
2022-10-06T21:17:49.014Z,99501.59
2022-10-06T21:20:19.609Z,99505.22
2022-10-06T21:22:48.076Z,99501.47
2022-10-06T21:25:17.048Z,99493.50
2022-10-06T21:27:47.295Z,99498.59
2022-10-06T21:30:16.019Z,99497.66
2022-10-06T21:32:44.563Z,99498.19
2022-10-06T21:35:13.314Z,99493.50
2022-10-06T21:37:43.464Z,99490.38
2022-10-06T21:40:12.358Z,99492.69
2022-10-06T21:42:49.835Z,99488.59
2022-10-06T21:45:21.960Z,99491.38
2022-10-06T21:47:52.935Z,99493.63
2022-10-06T21:50:21.566Z,99488.25
2022-10-06T21:52:51.484Z,99488.00
2022-10-06T21:55:19.887Z,99495.53
2022-10-06T21:57:48.556Z,99494.44
2022-10-06T22:00:17.275Z,99491.06
2022-10-06T22:02:48.185Z,99476.09
2022-10-06T22:05:17.026Z,99481.03
2022-10-06T22:07:46.366Z,99477.19
2022-10-06T22:10:16.894Z,99483.13
2022-10-06T22:12:45.586Z,99473.78
2022-10-06T22:15:14.096Z,99473.13
2022-10-06T22:17:43.671Z,99473.13
2022-10-06T22:20:13.727Z,99461.75
2022-10-06T22:22:42.397Z,99470.13
2022-10-06T22:25:11.069Z,99464.91
2022-10-06T22:27:41.093Z,99460.78
2022-10-06T22:30:11.613Z,99460.41
2022-10-06T22:32:40.293Z,99464.41
2022-10-06T22:35:10.284Z,99466.06
2022-10-06T22:37:38.739Z,99470.31
2022-10-06T22:40:11.363Z,99468.66
2022-10-06T22:42:42.680Z,99465.47
2022-10-06T22:45:34.409Z,99457.94
2022-10-06T22:48:02.934Z,99453.44
2022-10-06T22:50:31.382Z,99454.53
2022-10-06T22:53:02.461Z,99450.56
2022-10-06T22:55:31.671Z,99446.88
2022-10-06T22:58:01.524Z,99451.25
2022-10-06T23:00:30.540Z,99442.78
2022-10-06T23:02:59.201Z,99441.81
2022-10-06T23:05:28.413Z,99438.53
2022-10-06T23:07:57.225Z,99430.44
2022-10-06T23:10:29.607Z,99432.13
2022-10-06T23:13:00.288Z,99436.09
2022-10-06T23:15:30.800Z,99431.44
2022-10-06T23:17:59.323Z,99421.41
2022-10-06T23:20:28.274Z,99417.28
2022-10-06T23:22:57.600Z,99428.56
2022-10-06T23:25:27.441Z,99427.19
2022-10-06T23:27:56.244Z,99425.81
2022-10-06T23:30:26.319Z,99420.59
2022-10-06T23:32:56.011Z,99419.94
2022-10-06T23:35:24.501Z,99425.28
2022-10-06T23:37:53.017Z,99419.91
2022-10-06T23:40:22.405Z,99419.22
2022-10-06T23:42:51.882Z,99409.38
2022-10-06T23:45:20.994Z,99414.84
2022-10-06T23:47:51.274Z,99412.94
2022-10-06T23:50:20.617Z,99408.38
2022-10-06T23:52:49.722Z,99406.34
2022-10-06T23:55:18.414Z,99406.34
2022-10-06T23:57:47.184Z,99409.22
